Time;durP1;ratioP1;P1;durP2;ratioP2;P2;SDS_P1;SDS_P2;PMS_P1;PMS_P2;Temp;Humidity;BMP_temperature;BMP_pressure;BME280_temperature;BME280_humidity;BME280_pressure;Samples;Min_cycle;Max_cycle;Signal;HPM_P1;HPM_P2
2023/07/21 00:00:26;;;;;;;6.05;1.40;;;18.70;99.90;;;;;;5067506;28;20407;-68
2023/07/21 00:02:51;;;;;;;5.90;1.40;;;18.60;99.90;;;;;;5062407;28;20407;-68
2023/07/21 00:09:16;;;;;;;5.60;1.55;;;18.70;99.90;;;;;;5063305;28;20399;-68
2023/07/21 00:11:41;;;;;;;5.55;1.45;;;18.60;99.90;;;;;;5065235;28;20742;-68
2023/07/21 00:14:07;;;;;;;5.20;1.30;;;18.50;99.90;;;;;;5067442;28;20532;-68
2023/07/21 00:16:33;;;;;;;5.80;1.30;;;18.60;99.90;;;;;;5067510;28;20404;-67
2023/07/21 00:19:00;;;;;;;5.53;1.40;;;18.60;99.90;;;;;;5067474;28;20884;-68
2023/07/21 00:21:26;;;;;;;6.00;1.70;;;18.70;99.90;;;;;;5067538;28;20395;-68
2023/07/21 00:23:51;;;;;;;5.93;1.50;;;18.80;99.90;;;;;;5067025;28;20392;-67
2023/07/21 00:26:17;;;;;;;5.83;1.57;;;18.80;99.90;;;;;;5067157;28;20484;-67
2023/07/21 00:28:43;;;;;;;7.13;1.50;;;18.70;99.90;;;;;;5067971;28;20380;-67
2023/07/21 00:31:09;;;;;;;11.80;2.00;;;18.80;99.90;;;;;;5046865;28;20426;-68
2023/07/21 00:33:35;;;;;;;6.40;1.50;;;18.90;99.90;;;;;;5066405;28;20900;-67
2023/07/21 00:36:00;;;;;;;5.18;1.10;;;18.90;99.90;;;;;;5066860;28;20380;-67
2023/07/21 00:38:26;;;;;;;6.05;1.50;;;18.90;99.90;;;;;;5066604;28;20392;-68
2023/07/21 00:40:51;;;;;;;6.63;1.60;;;18.90;99.90;;;;;;5067431;28;20892;-68
2023/07/21 00:43:18;;;;;;;5.83;1.50;;;18.90;99.90;;;;;;5068224;28;20419;-68
2023/07/21 00:45:45;;;;;;;5.65;1.50;;;19.00;99.90;;;;;;5069319;28;21142;-68
2023/07/21 00:50:49;;;;;;;7.05;1.73;;;19.10;99.90;;;;;;4810553;22;20438;-66
2023/07/21 00:53:15;;;;;;;5.90;1.67;;;19.00;99.90;;;;;;5064352;28;20400;-66
2023/07/21 00:55:41;;;;;;;7.28;1.73;;;18.90;99.90;;;;;;5071442;28;20405;-66
2023/07/21 00:58:09;;;;;;;6.20;1.73;;;18.80;99.90;;;;;;5071266;28;20514;-67
2023/07/21 01:00:35;;;;;;;9.30;1.90;;;18.90;99.90;;;;;;5071264;28;20828;-67
2023/07/21 01:03:02;;;;;;;6.10;1.50;;;19.00;99.90;;;;;;5071229;28;20411;-67
2023/07/21 01:05:32;;;;;;;5.70;1.60;;;19.00;99.90;;;;;;5070892;28;20447;-66
2023/07/21 01:07:59;;;;;;;5.38;1.40;;;18.90;99.90;;;;;;5070917;28;20391;-66
2023/07/21 01:10:25;;;;;;;5.97;1.50;;;18.90;99.90;;;;;;5070984;28;20395;-67
2023/07/21 01:12:51;;;;;;;6.10;2.00;;;18.90;99.90;;;;;;5064264;28;20403;-66
2023/07/21 01:15:17;;;;;;;5.57;1.30;;;19.10;99.90;;;;;;5051870;28;20385;-66
2023/07/21 01:17:43;;;;;;;5.87;1.43;;;19.10;99.90;;;;;;5050849;28;20424;-66
2023/07/21 01:20:14;;;;;;;6.32;1.40;;;19.10;99.90;;;;;;5050818;28;20389;-66
2023/07/21 01:22:50;;;;;;;6.55;1.55;;;19.00;99.90;;;;;;5050908;28;20928;-66
2023/07/21 01:25:17;;;;;;;5.90;1.65;;;19.00;99.90;;;;;;5051075;28;20425;-66
2023/07/21 01:27:46;;;;;;;10.60;1.60;;;19.00;99.90;;;;;;5050940;28;20385;-66
2023/07/21 01:30:13;;;;;;;6.78;1.65;;;18.90;99.90;;;;;;5050628;28;20424;-66
2023/07/21 01:32:41;;;;;;;5.85;1.25;;;18.80;99.90;;;;;;5050667;28;20398;-67
2023/07/21 01:35:09;;;;;;;6.15;1.70;;;18.80;99.90;;;;;;5050218;28;20884;-66
2023/07/21 01:37:37;;;;;;;6.70;1.77;;;18.80;99.90;;;;;;5050444;28;20381;-66
2023/07/21 01:40:06;;;;;;;6.17;1.60;;;18.80;99.90;;;;;;5050618;28;20878;-66
2023/07/21 01:42:33;;;;;;;5.72;1.60;;;18.70;99.90;;;;;;5062632;28;20396;-67
2023/07/21 01:45:02;;;;;;;5.63;1.70;;;18.70;99.90;;;;;;5070087;28;20420;-67
2023/07/21 01:47:32;;;;;;;7.20;1.90;;;18.60;99.90;;;;;;5070916;28;20396;-67
2023/07/21 01:49:58;;;;;;;5.90;1.60;;;18.60;99.90;;;;;;5070393;28;20411;-67
2023/07/21 01:52:25;;;;;;;6.07;1.70;;;18.60;99.90;;;;;;5070219;28;20412;-67
2023/07/21 01:54:58;;;;;;;6.72;1.60;;;18.50;99.90;;;;;;5070847;28;20395;-67
2023/07/21 01:57:31;;;;;;;5.60;1.60;;;18.40;99.90;;;;;;5069676;28;20399;-67
2023/07/21 01:59:59;;;;;;;5.40;1.65;;;18.50;99.90;;;;;;5070835;28;20933;-67
2023/07/21 02:02:24;;;;;;;6.30;1.90;;;18.40;99.90;;;;;;5069735;28;20822;-67
2023/07/21 02:04:51;;;;;;;6.20;1.58;;;18.40;99.90;;;;;;5070076;28;20415;-67
2023/07/21 02:07:20;;;;;;;7.10;1.98;;;18.50;99.90;;;;;;5070485;28;20845;-66
2023/07/21 02:09:48;;;;;;;6.17;1.90;;;18.40;99.90;;;;;;5069847;28;20391;-66
2023/07/21 02:12:13;;;;;;;6.10;1.80;;;18.20;99.90;;;;;;5070075;28;20400;-66
2023/07/21 02:14:39;;;;;;;7.07;1.98;;;18.10;99.90;;;;;;5069780;28;21041;-66
2023/07/21 02:17:05;;;;;;;6.03;1.60;;;18.20;99.90;;;;;;5069921;28;20470;-66
2023/07/21 02:19:30;;;;;;;7.43;1.87;;;18.30;99.90;;;;;;5069455;28;20367;-66
2023/07/21 02:21:56;;;;;;;5.50;1.27;;;18.30;99.90;;;;;;5051756;28;20394;-66
2023/07/21 02:24:22;;;;;;;7.10;1.80;;;18.20;99.90;;;;;;5069603;28;20403;-66
2023/07/21 02:26:47;;;;;;;6.47;1.50;;;18.20;99.90;;;;;;5070223;28;20395;-67
2023/07/21 02:29:13;;;;;;;6.40;1.53;;;18.30;99.90;;;;;;5069473;28;20383;-67
2023/07/21 02:31:38;;;;;;;6.27;1.87;;;18.30;99.90;;;;;;5069200;28;20388;-66
2023/07/21 02:34:05;;;;;;;6.60;1.50;;;18.20;99.90;;;;;;5068287;28;20392;-66
2023/07/21 02:36:31;;;;;;;5.40;1.50;;;18.20;99.90;;;;;;5069670;28;20453;-66
2023/07/21 02:38:56;;;;;;;5.55;1.60;;;18.20;99.90;;;;;;5069211;28;20379;-66
2023/07/21 02:41:22;;;;;;;6.10;1.73;;;18.10;99.90;;;;;;5051214;28;20388;-67
2023/07/21 02:43:47;;;;;;;6.47;1.67;;;18.00;99.90;;;;;;5069875;28;20388;-66
2023/07/21 02:46:14;;;;;;;7.03;2.17;;;18.00;99.90;;;;;;5068691;28;20507;-66
2023/07/21 02:48:40;;;;;;;7.25;1.70;;;18.10;99.90;;;;;;5069752;28;20388;-66
2023/07/21 02:51:06;;;;;;;5.78;1.70;;;18.20;99.90;;;;;;5068211;28;20466;-66
2023/07/21 02:53:31;;;;;;;7.43;1.80;;;18.30;99.90;;;;;;5067428;28;20384;-66
2023/07/21 02:55:59;;;;;;;7.60;1.90;;;18.30;99.90;;;;;;5069121;28;20741;-66
2023/07/21 02:58:26;;;;;;;6.65;1.77;;;18.40;99.90;;;;;;5069161;28;20387;-67
2023/07/21 03:00:54;;;;;;;6.22;2.00;;;18.50;99.90;;;;;;5068484;28;20494;-66
2023/07/21 03:03:20;;;;;;;6.70;1.70;;;18.60;99.90;;;;;;5069457;28;20858;-67
2023/07/21 03:05:46;;;;;;;6.07;1.30;;;18.60;99.90;;;;;;5068892;28;20499;-67
2023/07/21 03:08:14;;;;;;;6.60;1.45;;;18.60;99.90;;;;;;5069389;28;20396;-66
2023/07/21 03:10:40;;;;;;;9.43;1.50;;;18.50;99.90;;;;;;5068288;28;20390;-67
2023/07/21 03:13:05;;;;;;;8.97;1.70;;;18.30;99.90;;;;;;5069014;28;20744;-67
2023/07/21 03:15:31;;;;;;;6.30;1.70;;;18.20;99.90;;;;;;5068423;28;20380;-67
2023/07/21 03:17:57;;;;;;;6.18;1.63;;;18.30;99.90;;;;;;5068658;28;20396;-66
2023/07/21 03:20:22;;;;;;;5.97;1.70;;;18.40;99.90;;;;;;5069339;28;20399;-67
2023/07/21 03:22:48;;;;;;;6.00;1.70;;;18.50;99.90;;;;;;5069422;28;20884;-67
2023/07/21 03:25:14;;;;;;;5.90;1.80;;;18.40;99.90;;;;;;5068800;28;20423;-67
2023/07/21 03:27:44;;;;;;;5.68;1.58;;;18.20;99.90;;;;;;5061872;28;20401;-67
2023/07/21 03:30:10;;;;;;;6.82;1.52;;;18.10;99.90;;;;;;5055740;28;20444;-67
2023/07/21 03:32:36;;;;;;;5.60;1.70;;;18.00;99.90;;;;;;5048432;28;20405;-67
2023/07/21 03:35:05;;;;;;;5.47;1.40;;;17.90;99.90;;;;;;5048499;28;20400;-67
2023/07/21 03:37:34;;;;;;;5.38;1.40;;;17.90;99.90;;;;;;5048538;28;20390;-67
2023/07/21 03:40:06;;;;;;;7.10;1.70;;;18.00;99.90;;;;;;5048351;28;20451;-66
2023/07/21 03:42:35;;;;;;;6.22;1.75;;;18.20;99.90;;;;;;5048722;28;20476;-66
2023/07/21 03:45:04;;;;;;;6.80;1.70;;;18.20;99.90;;;;;;5048845;28;20405;-67
2023/07/21 03:47:31;;;;;;;6.18;1.80;;;18.10;99.90;;;;;;5049174;28;20774;-67
2023/07/21 03:49:57;;;;;;;6.60;1.80;;;18.10;99.90;;;;;;5049553;28;20394;-67
2023/07/21 03:52:23;;;;;;;7.30;2.30;;;18.00;99.90;;;;;;5054657;28;20419;-67
2023/07/21 03:54:48;;;;;;;6.70;2.00;;;18.00;99.90;;;;;;5068857;28;20379;-67
2023/07/21 03:57:14;;;;;;;6.45;1.90;;;18.00;99.90;;;;;;5050204;28;20554;-67
2023/07/21 03:59:41;;;;;;;7.20;2.10;;;18.20;99.90;;;;;;5067919;28;20467;-67
2023/07/21 04:02:08;;;;;;;11.63;1.98;;;18.30;99.90;;;;;;5068706;28;20396;-66
2023/07/21 04:04:34;;;;;;;6.70;1.90;;;18.30;99.90;;;;;;5068556;28;20431;-66
2023/07/21 04:07:01;;;;;;;6.40;1.90;;;18.20;99.90;;;;;;5068493;28;20575;-67
2023/07/21 04:09:27;;;;;;;6.30;1.80;;;18.20;99.90;;;;;;5068269;28;20811;-67
2023/07/21 04:11:53;;;;;;;5.50;1.63;;;18.30;99.90;;;;;;5069036;28;20486;-66
2023/07/21 04:14:19;;;;;;;5.68;1.60;;;18.40;99.90;;;;;;5050391;28;20479;-66
2023/07/21 04:16:45;;;;;;;6.70;1.70;;;18.60;99.90;;;;;;5068298;28;20418;-67
2023/07/21 04:19:11;;;;;;;5.50;1.60;;;18.80;99.90;;;;;;5068626;28;20388;-67
2023/07/21 04:21:37;;;;;;;6.50;1.90;;;18.60;99.90;;;;;;5069979;28;20398;-65
2023/07/21 04:24:03;;;;;;;6.37;1.70;;;18.60;99.90;;;;;;5070112;28;20383;-66
2023/07/21 04:26:28;;;;;;;6.57;1.90;;;18.60;99.90;;;;;;5071938;28;20419;-67
2023/07/21 04:28:55;;;;;;;8.27;1.92;;;18.70;99.90;;;;;;5063137;28;20742;-67
2023/07/21 04:31:21;;;;;;;8.63;2.03;;;18.80;99.90;;;;;;5052240;28;20742;-67
2023/07/21 04:33:48;;;;;;;10.90;3.90;;;18.90;99.90;;;;;;5071230;28;20388;-66
2023/07/21 04:36:14;;;;;;;8.15;2.42;;;18.90;99.90;;;;;;5071836;28;20388;-66
2023/07/21 04:38:39;;;;;;;9.07;2.35;;;18.90;99.90;;;;;;5071873;28;20479;-67
2023/07/21 04:41:05;;;;;;;11.73;2.55;;;19.10;99.90;;;;;;5038003;28;20485;-66
2023/07/21 04:43:31;;;;;;;5.90;1.67;;;19.20;99.90;;;;;;5071403;28;20836;-66
2023/07/21 04:45:56;;;;;;;6.82;1.80;;;19.20;99.90;;;;;;5072759;28;20443;-66
2023/07/21 04:48:21;;;;;;;6.50;1.53;;;19.40;99.90;;;;;;5072867;28;20387;-66
2023/07/21 04:50:51;;;;;;;7.70;1.63;;;19.40;99.90;;;;;;5071639;28;20899;-66
2023/07/21 04:53:17;;;;;;;5.63;1.58;;;19.40;99.90;;;;;;5071186;28;20477;-66
2023/07/21 04:55:42;;;;;;;6.63;2.07;;;19.50;99.90;;;;;;5070149;28;20514;-66
2023/07/21 04:58:08;;;;;;;7.57;2.07;;;19.60;99.90;;;;;;5069891;28;20748;-67
2023/07/21 05:00:34;;;;;;;5.90;1.73;;;19.50;99.90;;;;;;5070235;28;20392;-67
2023/07/21 05:03:00;;;;;;;7.20;1.80;;;19.60;99.90;;;;;;5070784;28;20395;-67
2023/07/21 05:05:27;;;;;;;7.90;1.90;;;19.70;99.90;;;;;;5070674;28;20778;-67
2023/07/21 05:07:53;;;;;;;5.85;1.73;;;19.90;99.90;;;;;;5070954;28;20453;-66
2023/07/21 05:10:19;;;;;;;5.95;1.67;;;20.00;99.90;;;;;;5071234;28;20396;-66
2023/07/21 05:12:44;;;;;;;6.00;1.50;;;19.90;99.90;;;;;;5070394;28;20403;-66
2023/07/21 05:15:10;;;;;;;6.30;1.63;;;19.90;99.90;;;;;;5070759;28;20438;-66
2023/07/21 05:17:35;;;;;;;7.83;1.83;;;19.80;99.90;;;;;;5071310;28;20453;-67
2023/07/21 05:20:03;;;;;;;6.40;1.77;;;19.70;99.90;;;;;;5070397;28;20868;-66
2023/07/21 05:22:29;;;;;;;6.30;1.85;;;19.60;99.90;;;;;;5071344;28;20779;-66
2023/07/21 05:24:54;;;;;;;7.40;2.38;;;19.60;99.90;;;;;;5070714;28;20443;-67
2023/07/21 05:27:21;;;;;;;6.43;2.07;;;19.70;99.90;;;;;;5071262;28;20392;-67
2023/07/21 05:29:47;;;;;;;7.37;1.73;;;19.80;99.90;;;;;;5070901;28;20930;-66
2023/07/21 05:32:15;;;;;;;5.75;1.52;;;19.90;99.90;;;;;;5070220;28;20405;-67
2023/07/21 05:34:41;;;;;;;6.80;1.58;;;19.80;99.90;;;;;;5070101;28;20744;-67
2023/07/21 05:37:07;;;;;;;7.90;1.40;;;19.80;99.90;;;;;;5070165;28;20387;-66
2023/07/21 05:39:33;;;;;;;5.90;1.63;;;19.90;99.90;;;;;;5070961;28;20396;-66
2023/07/21 05:41:59;;;;;;;6.00;1.67;;;20.00;99.90;;;;;;5069823;28;20395;-67
2023/07/21 05:44:26;;;;;;;7.00;1.70;;;20.00;99.90;;;;;;5070468;28;20384;-66
2023/07/21 05:46:51;;;;;;;5.88;1.70;;;20.10;99.90;;;;;;5071743;28;20411;-66
2023/07/21 05:49:17;;;;;;;5.90;1.80;;;20.10;99.90;;;;;;5071514;28;20384;-67
2023/07/21 05:51:43;;;;;;;5.85;1.70;;;20.20;99.90;;;;;;5070003;28;20423;-67
2023/07/21 05:54:09;;;;;;;5.87;1.50;;;20.30;99.90;;;;;;5070620;28;20394;-67
2023/07/21 05:56:36;;;;;;;5.40;1.30;;;20.30;99.90;;;;;;5069714;28;20387;-67
2023/07/21 05:59:01;;;;;;;6.50;1.67;;;20.50;99.90;;;;;;5070119;28;20813;-67
2023/07/21 06:01:27;;;;;;;5.90;1.60;;;20.60;99.90;;;;;;5070567;28;20423;-67
2023/07/21 06:03:53;;;;;;;6.20;1.77;;;20.80;99.90;;;;;;5071019;28;20977;-67
2023/07/21 06:06:18;;;;;;;6.00;1.90;;;20.80;99.90;;;;;;5077517;28;20418;-67
2023/07/21 06:08:44;;;;;;;5.67;1.50;;;20.90;99.90;;;;;;5087156;28;20469;-67
2023/07/21 06:11:10;;;;;;;5.40;1.47;;;21.10;99.90;;;;;;5070238;28;20712;-67
2023/07/21 06:13:35;;;;;;;5.95;1.70;;;21.30;99.90;;;;;;5070465;28;20383;-67
2023/07/21 06:16:01;;;;;;;6.65;1.65;;;21.50;99.90;;;;;;5070033;28;20384;-67
2023/07/21 06:18:26;;;;;;;7.30;1.60;;;21.70;99.90;;;;;;5069679;28;20458;-67
2023/07/21 06:20:52;;;;;;;9.20;1.63;;;21.70;99.90;;;;;;5069613;28;20481;-67
2023/07/21 06:23:18;;;;;;;6.90;1.98;;;21.80;99.90;;;;;;5071044;28;20422;-67
2023/07/21 06:25:45;;;;;;;6.88;1.40;;;21.90;99.90;;;;;;5069126;28;20860;-67
2023/07/21 06:28:12;;;;;;;6.57;1.73;;;22.10;99.90;;;;;;5070137;28;20392;-67
2023/07/21 06:30:37;;;;;;;5.82;1.90;;;22.30;99.90;;;;;;5070352;28;20467;-67
2023/07/21 06:33:04;;;;;;;7.68;1.80;;;22.60;99.90;;;;;;5070513;28;20898;-67
2023/07/21 06:35:31;;;;;;;5.72;1.55;;;22.50;99.90;;;;;;5070165;28;20677;-67
2023/07/21 06:37:56;;;;;;;7.35;2.22;;;22.20;99.90;;;;;;5070402;28;20407;-67
2023/07/21 06:40:22;;;;;;;7.10;1.75;;;22.50;99.90;;;;;;5083077;28;20758;-67
2023/07/21 06:42:48;;;;;;;5.63;1.40;;;23.00;99.90;;;;;;5090290;28;20451;-67
2023/07/21 06:45:14;;;;;;;6.80;2.00;;;22.90;99.90;;;;;;5089639;28;20751;-67
2023/07/21 06:47:39;;;;;;;6.47;1.90;;;22.90;99.90;;;;;;5089737;28;20673;-67
2023/07/21 06:50:05;;;;;;;6.37;1.80;;;23.20;99.90;;;;;;5089919;28;20800;-67
2023/07/21 06:52:31;;;;;;;6.82;2.20;;;23.30;99.90;;;;;;5089546;28;20947;-67
2023/07/21 06:54:58;;;;;;;5.35;1.35;;;23.90;99.90;;;;;;5089299;28;20430;-67
2023/07/21 06:57:24;;;;;;;6.38;1.60;;;25.40;99.90;;;;;;5089498;28;20390;-67
2023/07/21 06:59:49;;;;;;;6.50;1.45;;;26.10;99.90;;;;;;5090543;28;20459;-67
2023/07/21 07:02:15;;;;;;;6.00;1.60;;;26.40;99.90;;;;;;5089597;28;20862;-67
2023/07/21 07:04:41;;;;;;;5.85;1.52;;;26.10;99.90;;;;;;5089674;28;20405;-67
2023/07/21 07:07:07;;;;;;;5.90;1.70;;;26.10;99.90;;;;;;5089603;28;20392;-67
2023/07/21 07:09:33;;;;;;;5.60;1.55;;;26.90;99.90;;;;;;5088877;28;20725;-67
2023/07/21 07:11:59;;;;;;;7.50;1.80;;;28.00;99.90;;;;;;5089587;28;20842;-67
2023/07/21 07:14:24;;;;;;;5.40;1.30;;;28.80;99.90;;;;;;5077594;28;20396;-67
2023/07/21 07:16:50;;;;;;;5.93;1.30;;;28.60;99.90;;;;;;5071607;28;20403;-68
2023/07/21 07:19:16;;;;;;;6.50;1.90;;;28.00;99.90;;;;;;5069632;28;20868;-67
2023/07/21 07:21:42;;;;;;;6.13;1.60;;;28.10;99.90;;;;;;5069150;28;20911;-67
2023/07/21 07:24:09;;;;;;;6.03;1.70;;;27.60;99.90;;;;;;5050722;28;20400;-68
2023/07/21 07:26:35;;;;;;;5.88;1.48;;;27.20;99.90;;;;;;5069314;28;20416;-67
2023/07/21 07:29:03;;;;;;;6.35;1.30;;;26.60;99.90;;;;;;5068731;28;20847;-67
2023/07/21 07:31:29;;;;;;;7.68;1.90;;;26.20;99.90;;;;;;5068477;28;20384;-67
2023/07/21 07:33:55;;;;;;;5.90;1.75;;;25.90;99.90;;;;;;5069022;28;20402;-67
2023/07/21 07:36:20;;;;;;;6.13;1.70;;;25.00;99.90;;;;;;5068788;28;20388;-67
2023/07/21 07:38:46;;;;;;;6.60;1.83;;;24.70;99.90;;;;;;5068797;28;20390;-67
2023/07/21 07:41:12;;;;;;;8.80;1.95;;;25.00;99.90;;;;;;5068730;28;20391;-67
2023/07/21 07:43:38;;;;;;;5.85;1.70;;;25.10;99.90;;;;;;5068301;28;20900;-66
2023/07/21 07:46:07;;;;;;;6.20;1.90;;;25.30;99.90;;;;;;5068186;28;20468;-66
2023/07/21 07:48:33;;;;;;;6.10;1.58;;;25.20;99.90;;;;;;5068603;28;20384;-66
2023/07/21 07:51:02;;;;;;;6.10;1.70;;;24.80;99.90;;;;;;5067761;28;20451;-67
2023/07/21 07:53:28;;;;;;;7.20;1.70;;;25.10;99.90;;;;;;5050175;28;20434;-68
2023/07/21 07:55:54;;;;;;;6.50;1.70;;;25.30;99.90;;;;;;5067843;28;20421;-66
2023/07/21 07:58:20;;;;;;;6.80;1.70;;;25.70;99.90;;;;;;5068569;28;20392;-66
2023/07/21 08:00:45;;;;;;;6.20;1.70;;;26.60;99.90;;;;;;5068361;28;20380;-66
2023/07/21 08:03:11;;;;;;;5.90;1.63;;;27.30;99.90;;;;;;5068457;28;20390;-68
2023/07/21 08:05:39;;;;;;;5.50;1.30;;;28.10;99.90;;;;;;5067951;28;20763;-66
2023/07/21 08:08:07;;;;;;;6.40;1.50;;;28.30;99.90;;;;;;5067968;28;20379;-68
2023/07/21 08:10:34;;;;;;;6.45;1.98;;;28.00;99.90;;;;;;5068262;28;20407;-67
2023/07/21 08:13:01;;;;;;;7.40;1.60;;;27.50;99.90;;;;;;5069415;28;20475;-67
2023/07/21 08:15:27;;;;;;;7.40;1.50;;;26.90;99.90;;;;;;5088841;28;20394;-67
2023/07/21 08:17:53;;;;;;;6.40;1.52;;;26.50;99.90;;;;;;5088844;28;20394;-67
2023/07/21 08:20:19;;;;;;;7.30;1.50;;;25.90;99.90;;;;;;5088615;28;20431;-67
2023/07/21 08:22:48;;;;;;;8.70;1.60;;;25.70;99.90;;;;;;5088493;28;20409;-67
2023/07/21 08:25:15;;;;;;;5.60;1.40;;;25.80;99.90;;;;;;5088034;28;20815;-67
2023/07/21 08:27:41;;;;;;;5.50;1.20;;;25.80;99.90;;;;;;5088144;28;20499;-67
2023/07/21 08:30:09;;;;;;;7.00;1.30;;;25.70;99.90;;;;;;5088273;28;20481;-67
2023/07/21 08:32:40;;;;;;;5.82;1.20;;;25.50;99.90;;;;;;5088148;28;20397;-67
2023/07/21 08:35:06;;;;;;;6.45;1.50;;;25.20;99.90;;;;;;5087909;28;20881;-67
2023/07/21 08:37:32;;;;;;;5.70;1.30;;;25.80;99.90;;;;;;5087806;28;20385;-66
2023/07/21 08:39:58;;;;;;;6.80;1.30;;;28.00;99.90;;;;;;5088106;28;20390;-66
2023/07/21 08:42:27;;;;;;;5.35;1.30;;;29.40;99.90;;;;;;5087964;28;20386;-67
2023/07/21 08:44:54;;;;;;;5.90;1.30;;;28.90;99.90;;;;;;5088004;28;20424;-67
2023/07/21 08:47:20;;;;;;;5.20;1.33;;;28.30;99.90;;;;;;5088321;28;20404;-67
2023/07/21 08:49:47;;;;;;;5.40;1.30;;;28.60;99.90;;;;;;5088507;28;20861;-68
2023/07/21 08:52:13;;;;;;;8.15;1.50;;;28.40;99.90;;;;;;5087807;28;20424;-68
2023/07/21 08:54:39;;;;;;;5.10;1.10;;;28.90;99.90;;;;;;5087917;28;20394;-68
2023/07/21 08:57:05;;;;;;;5.30;1.30;;;29.50;99.90;;;;;;5088305;28;20423;-68
2023/07/21 08:59:31;;;;;;;5.80;1.10;;;29.70;99.90;;;;;;5088100;28;20482;-68
2023/07/21 09:01:57;;;;;;;5.60;1.40;;;30.00;99.90;;;;;;5088057;28;20388;-68
2023/07/21 09:04:24;;;;;;;6.80;1.20;;;30.50;99.90;;;;;;5088427;28;20390;-68
2023/07/21 09:06:57;;;;;;;5.80;1.30;;;31.10;99.90;;;;;;5090558;28;20426;-68
2023/07/21 09:09:26;;;;;;;5.90;1.30;;;31.60;99.90;;;;;;5096307;28;20374;-67
2023/07/21 09:12:03;;;;;;;6.13;1.00;;;32.40;99.90;;;;;;5093741;28;20424;-67
2023/07/21 09:14:43;;;;;;;5.88;1.30;;;31.40;99.90;;;;;;5080229;28;20391;-67
2023/07/21 09:17:13;;;;;;;7.53;1.53;;;32.20;99.90;;;;;;5073515;28;20399;-67
2023/07/21 09:19:41;;;;;;;6.20;1.05;;;31.80;99.90;;;;;;5073594;28;20423;-67
2023/07/21 09:22:07;;;;;;;5.68;1.23;;;32.60;99.90;;;;;;5074602;28;20391;-68
2023/07/21 09:24:33;;;;;;;5.30;1.30;;;33.10;99.90;;;;;;5075184;28;20486;-67
2023/07/21 09:27:16;;;;;;;4.90;0.80;;;34.10;99.90;;;;;;5074101;28;20391;-68
2023/07/21 09:29:42;;;;;;;8.10;1.60;;;35.00;99.90;;;;;;5073215;28;20684;-67
2023/07/21 09:32:17;;;;;;;6.80;1.55;;;33.30;99.90;;;;;;5072451;28;20427;-67
2023/07/21 09:35:00;;;;;;;5.55;1.35;;;32.30;99.90;;;;;;5072284;28;20395;-67
2023/07/21 09:37:27;;;;;;;6.28;1.70;;;31.20;99.90;;;;;;5072186;28;20403;-67
2023/07/21 09:40:01;;;;;;;5.85;1.45;;;30.60;99.90;;;;;;5071800;28;20748;-68
2023/07/21 09:42:28;;;;;;;5.10;1.10;;;30.40;99.90;;;;;;5071770;28;20437;-67
2023/07/21 09:44:55;;;;;;;5.40;1.20;;;30.10;99.90;;;;;;5071390;28;20451;-67
2023/07/21 09:47:21;;;;;;;4.80;0.82;;;30.80;99.90;;;;;;5071522;28;20749;-68
2023/07/21 09:49:55;;;;;;;5.40;1.30;;;30.70;99.90;;;;;;5073212;28;20395;-67
2023/07/21 09:52:22;;;;;;;6.60;1.90;;;30.60;99.90;;;;;;5071762;28;20502;-67
2023/07/21 09:54:52;;;;;;;5.90;1.60;;;30.10;99.90;;;;;;5053751;28;20973;-68
2023/07/21 09:57:23;;;;;;;6.70;1.55;;;30.80;99.90;;;;;;5071174;28;20403;-67
2023/07/21 09:59:50;;;;;;;5.32;1.38;;;32.20;99.90;;;;;;5071831;28;20423;-69
2023/07/21 10:02:16;;;;;;;5.50;1.30;;;33.60;99.90;;;;;;5070676;28;20399;-68
2023/07/21 10:04:45;;;;;;;5.50;1.50;;;33.60;99.90;;;;;;5070624;28;20419;-68
2023/07/21 10:07:12;;;;;;;5.88;1.30;;;31.50;99.90;;;;;;5070920;28;20391;-67
2023/07/21 10:09:39;;;;;;;5.43;1.20;;;30.60;99.90;;;;;;5070529;28;20384;-67
2023/07/21 10:12:14;;;;;;;6.90;1.50;;;31.40;99.90;;;;;;5070449;28;20388;-67
2023/07/21 10:14:40;;;;;;;5.50;1.30;;;33.40;99.90;;;;;;5070637;28;20379;-67
2023/07/21 10:17:10;;;;;;;5.88;1.10;;;34.40;99.90;;;;;;5070016;28;20402;-67
2023/07/21 10:19:40;;;;;;;5.30;1.13;;;34.90;99.90;;;;;;5069719;28;20392;-67
2023/07/21 10:22:10;;;;;;;5.57;1.10;;;35.30;99.90;;;;;;5070272;28;20502;-68
2023/07/21 10:24:48;;;;;;;6.10;1.40;;;36.00;99.90;;;;;;5070171;28;20484;-68
2023/07/21 10:27:24;;;;;;;5.47;0.90;;;34.70;99.90;;;;;;5070174;28;20437;-68
2023/07/21 10:29:56;;;;;;;6.10;1.50;;;34.20;99.90;;;;;;5070724;28;20886;-68
2023/07/21 10:32:24;;;;;;;5.20;1.00;;;33.20;99.90;;;;;;5071541;28;20844;-68
2023/07/21 10:34:51;;;;;;;5.60;1.27;;;33.40;99.90;;;;;;5073864;28;20465;-68
2023/07/21 10:37:17;;;;;;;5.10;0.90;;;32.40;99.90;;;;;;5070116;28;20455;-68
2023/07/21 10:39:53;;;;;;;5.32;1.10;;;32.80;99.90;;;;;;5069699;28;20482;-67
2023/07/21 10:42:18;;;;;;;6.18;1.20;;;32.80;99.90;;;;;;5070546;28;20752;-69
2023/07/21 10:44:46;;;;;;;5.50;0.93;;;33.00;99.90;;;;;;5069234;28;20416;-68
2023/07/21 10:47:17;;;;;;;5.68;1.20;;;32.10;99.90;;;;;;5069646;28;20384;-68
2023/07/21 10:49:43;;;;;;;6.45;1.08;;;30.90;99.90;;;;;;5069896;28;20384;-67
2023/07/21 10:52:09;;;;;;;5.00;0.93;;;30.80;99.90;;;;;;5069820;28;20498;-68
2023/07/21 10:54:35;;;;;;;5.60;1.00;;;30.40;99.90;;;;;;5069319;28;20478;-68
2023/07/21 10:57:02;;;;;;;5.47;1.30;;;29.70;99.90;;;;;;5069536;28;20891;-68
2023/07/21 10:59:31;;;;;;;5.30;1.40;;;29.80;99.90;;;;;;5069362;28;20388;-68
2023/07/21 11:01:57;;;;;;;6.30;1.70;;;30.10;99.90;;;;;;5070341;28;20387;-66
2023/07/21 11:04:23;;;;;;;5.90;1.70;;;29.80;99.90;;;;;;5069622;28;20402;-67
2023/07/21 11:06:53;;;;;;;6.50;1.75;;;29.10;99.90;;;;;;5070261;28;20929;-68
2023/07/21 11:09:21;;;;;;;5.72;1.15;;;28.90;99.90;;;;;;5051852;28;20438;-67
2023/07/21 11:11:48;;;;;;;6.40;1.40;;;28.90;99.90;;;;;;5069656;28;20463;-68
2023/07/21 11:14:16;;;;;;;10.20;1.00;;;29.50;99.90;;;;;;5068872;28;20384;-68
2023/07/21 11:16:52;;;;;;;5.77;1.70;;;29.30;99.90;;;;;;5069102;28;21290;-68
2023/07/21 11:19:19;;;;;;;6.40;1.50;;;29.00;99.90;;;;;;5069686;28;20475;-68
2023/07/21 11:21:46;;;;;;;5.40;1.20;;;29.00;99.90;;;;;;5069411;28;20384;-68
2023/07/21 11:24:16;;;;;;;4.70;0.80;;;28.80;99.90;;;;;;5069535;28;20388;-68
2023/07/21 11:26:42;;;;;;;5.40;1.10;;;29.20;99.90;;;;;;5068458;28;20436;-68
2023/07/21 11:29:08;;;;;;;6.40;1.38;;;29.60;99.90;;;;;;5068433;28;20396;-67
2023/07/21 11:31:36;;;;;;;7.83;1.40;;;30.10;99.90;;;;;;5068236;28;20956;-68
2023/07/21 11:34:02;;;;;;;5.60;1.40;;;30.30;99.90;;;;;;5068671;28;20892;-68
2023/07/21 11:36:30;;;;;;;5.53;1.17;;;30.40;99.90;;;;;;5069104;28;20466;-67
2023/07/21 11:38:59;;;;;;;5.60;1.00;;;30.30;99.90;;;;;;5069036;28;20399;-67
2023/07/21 11:41:40;;;;;;;6.32;1.30;;;30.30;99.90;;;;;;5068515;28;20423;-68
2023/07/21 11:44:10;;;;;;;5.55;1.17;;;30.00;99.90;;;;;;5068304;28;20387;-68
2023/07/21 11:46:37;;;;;;;6.40;1.30;;;30.70;99.90;;;;;;5068628;28;20517;-68
2023/07/21 11:49:10;;;;;;;5.05;1.00;;;31.20;99.90;;;;;;5067069;28;20388;-68
2023/07/21 11:51:51;;;;;;;5.57;1.08;;;31.50;99.90;;;;;;5068121;28;20418;-68
2023/07/21 11:54:49;;;;;;;5.60;1.30;;;30.90;99.90;;;;;;5066827;28;20422;-68
2023/07/21 11:57:15;;;;;;;5.97;1.40;;;30.60;99.90;;;;;;5062726;28;20884;-68
2023/07/21 11:59:40;;;;;;;5.77;1.30;;;30.30;99.90;;;;;;5067259;28;20397;-66
2023/07/21 12:02:08;;;;;;;5.40;1.30;;;30.20;99.90;;;;;;5065936;28;20445;-67
2023/07/21 12:04:35;;;;;;;5.32;1.10;;;30.00;99.90;;;;;;5067931;28;20384;-67
2023/07/21 12:07:01;;;;;;;5.47;1.30;;;29.20;99.90;;;;;;5067645;28;20471;-66
2023/07/21 12:09:27;;;;;;;5.60;1.40;;;28.60;99.90;;;;;;5067619;28;20515;-67
2023/07/21 12:11:54;;;;;;;5.32;1.27;;;28.50;99.90;;;;;;5067102;28;20483;-67
2023/07/21 12:14:20;;;;;;;6.75;1.67;;;28.50;99.90;;;;;;5068354;28;20428;-67
2023/07/21 12:16:46;;;;;;;7.20;1.63;;;28.50;99.90;;;;;;5067307;28;20396;-66
2023/07/21 12:19:12;;;;;;;5.40;1.25;;;28.80;99.90;;;;;;5067803;28;20387;-67
2023/07/21 12:21:37;;;;;;;5.17;1.33;;;28.40;99.90;;;;;;5067693;28;20392;-68
2023/07/21 12:24:03;;;;;;;5.10;1.40;;;28.10;99.90;;;;;;5067880;28;20398;-67
2023/07/21 12:26:28;;;;;;;6.50;1.30;;;28.40;99.90;;;;;;5067485;28;20423;-68
2023/07/21 12:28:55;;;;;;;6.17;1.40;;;28.30;99.90;;;;;;5066089;28;20380;-68
2023/07/21 12:31:21;;;;;;;5.50;1.10;;;27.90;99.90;;;;;;5067627;28;20747;-67
2023/07/21 12:33:48;;;;;;;6.80;1.40;;;27.40;99.90;;;;;;5068633;28;20391;-67
2023/07/21 12:36:15;;;;;;;5.53;1.20;;;27.20;99.90;;;;;;5066386;28;20399;-67
2023/07/21 12:38:41;;;;;;;5.63;1.33;;;27.00;99.90;;;;;;5064069;28;20403;-68
2023/07/21 12:41:07;;;;;;;5.60;1.60;;;26.80;99.90;;;;;;5050608;28;20399;-67
2023/07/21 12:43:33;;;;;;;7.45;1.30;;;27.00;99.90;;;;;;5069457;28;20486;-67
2023/07/21 12:46:00;;;;;;;6.40;1.20;;;27.40;99.90;;;;;;5071077;28;20415;-67
2023/07/21 12:48:26;;;;;;;5.60;1.50;;;27.20;99.90;;;;;;5071598;28;20406;-67
2023/07/21 12:50:52;;;;;;;7.00;1.33;;;26.80;99.90;;;;;;5072193;28;20404;-67